Jeriel, Kentucky
Current Conditions -  °F | °C
As of 11:55 AM on Wednesday 22 Oct 2014 (Local Time) from KDWU Reporting Station
Overcast Overcast  
Wind Chill: 52°   Ceiling: 3600
Heat Index: 52°   Visibility: 10mi
Dew Point: 43°   Wind: 7mph
Humidity: 71%   Direction: 360°N
Pressure: 30.23"   Gusts: NA
Location:  38.3193°N, 82.994°W
Report Text: KDWU 221555Z AUTO 36006KT 10SM SCT023 OVC036 11/06 A3023 RMK AO1
Loading
Personal Weather Stations






























Interactive Weather Map
Tropical Storm Tracking
New forecast layout! Learn more

10-Day Weather Forecast

Advertisements
Track Severe Weather on mobile